Time;durP1;ratioP1;P1;durP2;ratioP2;P2;SDS_P1;SDS_P2;PMS_P1;PMS_P2;Temp;Humidity;BMP_temperature;BMP_pressure;BME280_temperature;BME280_humidity;BME280_pressure;Samples;Min_cycle;Max_cycle;Signal;HPM_P1;HPM_P2
2022/02/15 00:01:04;;;;;;;;;5.75;4.50;;;;;9.85;63.67;101011.94;5021191;28;48145;-82
2022/02/15 00:03:30;;;;;;;;;5.50;4.50;;;;;9.79;63.63;101005.09;5039255;28;45273;-82
2022/02/15 00:05:56;;;;;;;;;4.00;4.00;;;;;9.83;63.38;101013.75;5039442;28;45226;-88
2022/02/15 00:08:21;;;;;;;;;4.00;4.00;;;;;9.84;63.65;101012.88;5038633;28;45293;-88
2022/02/15 00:10:47;;;;;;;;;3.00;3.00;;;;;9.86;63.65;101016.31;5025312;28;47127;-88
2022/02/15 00:13:14;;;;;;;;;2.25;2.25;;;;;9.88;63.55;101017.13;5040435;28;45416;-88
2022/02/15 00:15:40;;;;;;;;;5.25;4.00;;;;;9.92;63.63;101022.31;5039564;28;45495;-87
2022/02/15 00:18:05;;;;;;;;;6.50;5.00;;;;;9.93;63.51;101013.50;5020026;28;46684;-84
2022/02/15 00:20:30;;;;;;;;;4.50;4.50;;;;;9.92;63.78;101011.81;5039195;28;46513;-81
2022/02/15 00:22:56;;;;;;;;;4.50;2.25;;;;;9.95;63.46;101017.81;5039083;28;45311;-86
2022/02/15 00:25:22;;;;;;;;;3.00;3.00;;;;;9.97;63.32;101015.16;5037564;28;45457;-83
2022/02/15 00:27:47;;;;;;;;;3.00;3.00;;;;;9.93;63.13;101018.75;5028446;28;45322;-81
2022/02/15 00:30:13;;;;;;;;;4.00;4.00;;;;;9.89;63.41;101013.59;5039143;28;46290;-81
2022/02/15 00:32:41;;;;;;;;;4.75;4.75;;;;;9.88;63.45;101021.50;5038706;28;45437;-81
2022/02/15 00:35:06;;;;;;;;;4.00;3.00;;;;;9.85;63.42;101027.69;5033002;28;45144;-82
2022/02/15 00:37:32;;;;;;;;;6.50;3.50;;;;;9.84;63.51;101026.00;5038170;28;45387;-83
2022/02/15 00:39:57;;;;;;;;;4.50;4.00;;;;;9.85;63.29;101032.94;5038658;28;45536;-83
2022/02/15 00:42:23;;;;;;;;;2.00;2.00;;;;;9.89;63.30;101034.63;5039235;28;45471;-83
2022/02/15 00:44:48;;;;;;;;;5.00;3.00;;;;;9.88;63.06;101038.13;5028953;28;45411;-82
2022/02/15 00:47:15;;;;;;;;;2.00;1.50;;;;;9.87;63.49;101035.56;5038889;28;45422;-85
2022/02/15 00:49:41;;;;;;;;;4.00;3.25;;;;;9.88;63.22;101045.13;5022286;28;47373;-89
2022/02/15 00:52:06;;;;;;;;;4.00;3.25;;;;;9.83;63.11;101047.88;5042419;28;45371;-90
2022/02/15 00:54:31;;;;;;;;;3.00;3.00;;;;;9.81;63.29;101047.06;5023723;28;45473;-89
2022/02/15 00:56:57;;;;;;;;;3.25;2.50;;;;;9.83;63.49;101039.16;5042108;28;45498;-89
2022/02/15 00:59:22;;;;;;;;;6.00;4.75;;;;;9.85;63.54;101053.94;5042122;28;45426;-87
2022/02/15 01:01:48;;;;;;;;;6.00;4.00;;;;;9.86;63.42;101058.31;5041950;28;45214;-87
2022/02/15 01:04:13;;;;;;;;;2.75;2.75;;;;;9.84;63.78;101059.25;5041076;28;45281;-87
2022/02/15 01:06:39;;;;;;;;;3.25;3.25;;;;;9.84;63.89;101060.13;5023972;28;46864;-87
2022/02/15 01:09:04;;;;;;;;;4.25;3.00;;;;;9.86;63.59;101060.06;5041642;28;45649;-88
2022/02/15 01:11:29;;;;;;;;;5.00;3.00;;;;;9.84;63.41;101057.50;5051877;28;45285;-83
2022/02/15 01:13:55;;;;;;;;;6.00;5.75;;;;;9.79;63.56;101060.22;5040241;28;45291;-82
2022/02/15 01:16:20;;;;;;;;;5.00;5.00;;;;;9.82;63.84;101067.19;5035717;28;45559;-83
2022/02/15 01:18:46;;;;;;;;;7.00;4.00;;;;;9.81;63.73;101067.19;5042096;28;45408;-83
2022/02/15 01:21:11;;;;;;;;;4.50;4.50;;;;;9.83;63.69;101068.88;5041785;28;45297;-83
2022/02/15 01:23:36;;;;;;;;;5.75;5.75;;;;;9.85;63.69;101076.75;5041901;28;45158;-83
2022/02/15 01:26:02;;;;;;;;;4.00;3.00;;;;;9.81;63.43;101078.56;5040580;28;45225;-83
2022/02/15 01:28:27;;;;;;;;;5.25;3.25;;;;;9.78;63.60;101083.88;5041682;28;45264;-82
2022/02/15 01:30:53;;;;;;;;;3.00;1.50;;;;;9.72;63.82;101084.91;5041692;28;45460;-83
2022/02/15 01:33:18;;;;;;;;;3.50;2.50;;;;;9.71;64.03;101088.41;5041332;28;45484;-82
2022/02/15 01:35:44;;;;;;;;;4.00;4.00;;;;;9.69;63.36;101090.22;5041369;28;45404;-82
2022/02/15 01:38:09;;;;;;;;;4.75;3.00;;;;;9.70;63.80;101085.84;5040842;28;45413;-82
2022/02/15 01:40:35;;;;;;;;;4.00;2.75;;;;;9.74;63.62;101092.72;5041382;28;45377;-85
2022/02/15 01:43:00;;;;;;;;;3.00;3.00;;;;;9.71;63.57;101085.78;5042282;28;45960;-85
2022/02/15 01:45:27;;;;;;;;;4.50;3.25;;;;;9.68;63.67;101086.72;5018004;28;46126;-83
2022/02/15 01:47:52;;;;;;;;;4.00;2.75;;;;;9.71;64.04;101103.31;5038450;28;45510;-83
2022/02/15 01:50:18;;;;;;;;;4.00;2.75;;;;;9.70;63.96;101096.34;5041581;28;45243;-83
2022/02/15 01:52:44;;;;;;;;;2.25;1.25;;;;;9.68;63.64;101099.84;5041577;28;45154;-83
2022/02/15 01:55:13;;;;;;;;;7.75;3.25;;;;;9.69;63.68;101100.72;5041261;28;45217;-82
2022/02/15 01:57:39;;;;;;;;;3.00;1.00;;;;;9.71;63.77;101105.94;5040939;28;45630;-83
2022/02/15 02:00:07;;;;;;;;;3.00;2.00;;;;;9.70;63.69;101109.47;5041028;28;45755;-84
2022/02/15 02:02:32;;;;;;;;;3.50;2.75;;;;;9.70;63.58;101110.34;5040322;28;45457;-85
2022/02/15 02:07:42;;;;;;;;;2.50;2.00;;;;;9.57;63.74;101115.00;5040248;28;45758;-85
2022/02/15 02:10:08;;;;;;;;;5.50;2.75;;;;;9.59;63.70;101121.06;5040960;28;45463;-86
2022/02/15 02:12:34;;;;;;;;;3.00;2.00;;;;;9.61;63.78;101126.28;5041621;28;45231;-87
2022/02/15 02:15:04;;;;;;;;;5.00;3.00;;;;;9.61;63.58;101124.50;5040607;28;45499;-84
2022/02/15 02:17:30;;;;;;;;;6.00;3.75;;;;;9.56;63.36;101129.00;5031686;28;45429;-84
2022/02/15 02:19:57;;;;;;;;;4.25;2.25;;;;;9.55;63.89;101135.16;5038179;28;45494;-86
2022/02/15 02:22:24;;;;;;;;;4.00;2.00;;;;;9.53;64.09;101132.56;5041219;28;45348;-84
2022/02/15 02:24:54;;;;;;;;;3.25;3.00;;;;;9.55;63.86;101137.78;5022669;28;45898;-85
2022/02/15 02:27:23;;;;;;;;;4.25;3.25;;;;;9.51;64.01;101142.22;5040195;28;45638;-83
2022/02/15 02:29:51;;;;;;;;;2.50;2.00;;;;;9.49;63.90;101140.53;5022651;28;45602;-83
2022/02/15 02:32:20;;;;;;;;;2.00;2.00;;;;;9.45;64.00;101140.63;5041250;28;45275;-83
2022/02/15 02:34:46;;;;;;;;;3.00;2.75;;;;;9.50;64.19;101137.91;5039892;28;45421;-82
2022/02/15 02:37:14;;;;;;;;;2.00;2.00;;;;;9.51;63.75;101146.59;5040673;28;46493;-81
2022/02/15 02:39:44;;;;;;;;;4.50;2.25;;;;;9.49;63.65;101145.78;5040427;28;45662;-82
2022/02/15 02:42:13;;;;;;;;;3.50;2.00;;;;;9.49;63.95;101135.28;5037801;28;45323;-81
2022/02/15 02:44:39;;;;;;;;;3.00;2.00;;;;;9.50;63.93;101153.63;5035800;28;45396;-81
2022/02/15 02:47:06;;;;;;;;;1.00;1.00;;;;;9.49;64.15;101151.03;5040503;28;46111;-80
2022/02/15 02:49:32;;;;;;;;;1.50;1.00;;;;;9.48;63.84;101155.44;5040265;28;45850;-80
2022/02/15 02:51:58;;;;;;;;;3.25;2.25;;;;;9.53;63.97;101157.97;5040138;28;45561;-80
2022/02/15 02:54:24;;;;;;;;;3.50;3.00;;;;;9.56;64.24;101171.00;5039935;28;45425;-81
2022/02/15 02:56:50;;;;;;;;;3.00;2.25;;;;;9.59;63.88;101164.81;5040290;28;45882;-81
2022/02/15 02:59:15;;;;;;;;;2.75;1.75;;;;;9.62;63.99;101163.00;5040511;28;45300;-80
2022/02/15 03:01:41;;;;;;;;;5.00;3.25;;;;;9.62;63.76;101170.88;5040465;28;45424;-81
2022/02/15 03:04:06;;;;;;;;;4.00;2.00;;;;;9.65;63.60;101173.44;5039037;28;45316;-80
2022/02/15 03:06:32;;;;;;;;;1.00;1.00;;;;;9.67;63.46;101170.78;5040170;28;45483;-81
2022/02/15 03:08:57;;;;;;;;;4.25;2.00;;;;;9.62;63.38;101168.25;5039589;28;45344;-81
2022/02/15 03:11:22;;;;;;;;;2.25;2.00;;;;;9.57;63.46;101170.09;5050081;28;45467;-80
2022/02/15 03:13:48;;;;;;;;;1.00;1.00;;;;;9.52;63.66;101178.09;5039637;28;45414;-81
2022/02/15 03:16:13;;;;;;;;;4.50;3.00;;;;;9.52;63.34;101190.34;5039888;28;45221;-80
2022/02/15 03:18:38;;;;;;;;;2.00;2.00;;;;;9.49;64.08;101200.88;5039471;28;45145;-85
2022/02/15 03:21:04;;;;;;;;;2.75;2.00;;;;;9.47;63.88;101200.94;5039980;28;45257;-86
2022/02/15 03:23:29;;;;;;;;;1.25;0.00;;;;;9.47;63.44;101206.19;5040333;28;45214;-86
2022/02/15 03:25:54;;;;;;;;;2.00;2.00;;;;;9.45;63.64;101206.22;5032995;28;45418;-87
2022/02/15 03:28:20;;;;;;;;;1.75;1.00;;;;;9.41;63.66;101209.78;5034983;28;45198;-86
2022/02/15 03:30:45;;;;;;;;;2.00;2.00;;;;;9.41;63.57;101211.53;5040222;28;45241;-85
2022/02/15 03:33:11;;;;;;;;;2.00;1.00;;;;;9.42;63.67;101227.25;5039942;28;45368;-85
2022/02/15 03:35:36;;;;;;;;;5.00;2.00;;;;;9.35;63.34;101228.28;5038937;28;45598;-84
2022/02/15 03:38:02;;;;;;;;;1.25;1.25;;;;;9.31;64.06;101229.25;5039367;28;45174;-85
2022/02/15 03:43:04;;;;;;;;;2.25;1.25;;;;;9.34;63.78;101237.03;5039716;28;45330;-83
2022/02/15 03:43:13;;;;;;;;;2.00;1.50;;;;;9.32;63.62;101244.06;5039865;28;45206;-84
2022/02/15 03:45:39;;;;;;;;;0.75;0.75;;;;;9.29;63.46;101244.13;5021221;28;47164;-84
2022/02/15 03:48:05;;;;;;;;;3.00;1.25;;;;;9.29;63.62;101252.00;5039802;28;45409;-84
2022/02/15 03:50:30;;;;;;;;;3.00;1.00;;;;;9.30;63.33;101256.38;5038642;28;45470;-84
2022/02/15 03:52:55;;;;;;;;;1.25;1.25;;;;;9.28;62.97;101264.28;5039452;28;45366;-84
2022/02/15 03:55:22;;;;;;;;;2.75;2.00;;;;;9.26;63.43;101262.56;5038696;28;46541;-84
2022/02/15 03:57:48;;;;;;;;;4.50;1.50;;;;;9.27;63.13;101273.03;5039538;28;45314;-84
2022/02/15 04:00:14;;;;;;;;;2.75;1.75;;;;;9.29;63.06;101280.84;5039944;28;45241;-84
2022/02/15 04:02:39;;;;;;;;;2.00;2.00;;;;;9.26;62.76;101275.69;5021153;28;46202;-84
2022/02/15 04:05:05;;;;;;;;;2.25;1.00;;;;;9.19;63.12;101273.16;5032186;28;45452;-88
2022/02/15 04:07:30;;;;;;;;;1.00;1.00;;;;;9.15;63.00;101287.25;5021631;28;45209;-90
2022/02/15 04:09:56;;;;;;;;;2.50;1.50;;;;;9.12;62.93;101287.28;5021296;28;45277;-91
2022/02/15 04:12:21;;;;;;;;;3.25;2.00;;;;;9.09;63.56;101289.94;5039212;28;46240;-85
2022/02/15 04:14:46;;;;;;;;;1.00;1.00;;;;;9.08;63.23;101290.88;5034150;28;45481;-83
2022/02/15 04:17:12;;;;;;;;;2.25;2.00;;;;;9.09;63.47;101300.44;5039449;28;45419;-81
2022/02/15 04:19:37;;;;;;;;;2.00;1.00;;;;;9.06;63.19;101301.38;5039055;28;45189;-81
2022/02/15 04:22:03;;;;;;;;;3.00;2.00;;;;;9.07;63.22;101312.72;5038063;28;45404;-81
2022/02/15 04:24:28;;;;;;;;;2.75;2.50;;;;;9.07;63.43;101312.72;5039252;28;46352;-82
2022/02/15 04:26:53;;;;;;;;;4.00;1.25;;;;;9.06;63.43;101314.47;5042448;28;45491;-82
2022/02/15 04:29:19;;;;;;;;;1.00;1.00;;;;;9.04;63.23;101321.50;5043040;28;45384;-82
2022/02/15 04:31:45;;;;;;;;;7.50;2.00;;;;;9.03;63.08;101326.78;5041938;28;45394;-82
2022/02/15 04:34:10;;;;;;;;;2.50;2.50;;;;;9.00;63.33;101338.19;5042792;28;45380;-82
2022/02/15 04:36:35;;;;;;;;;1.00;1.00;;;;;8.96;62.79;101339.97;5042174;28;45448;-82
2022/02/15 04:39:01;;;;;;;;;3.75;2.00;;;;;8.95;62.95;101338.28;5041920;28;45447;-82
2022/02/15 04:41:26;;;;;;;;;3.00;2.00;;;;;8.97;63.28;101346.97;5042105;28;45586;-82
2022/02/15 04:43:52;;;;;;;;;3.50;3.25;;;;;8.95;63.34;101346.13;5042490;28;46393;-82
2022/02/15 04:46:17;;;;;;;;;5.25;1.00;;;;;8.95;62.90;101351.38;5042513;28;45375;-82
2022/02/15 04:48:42;;;;;;;;;3.50;2.00;;;;;8.98;63.07;101358.34;5042440;28;45240;-83
2022/02/15 04:51:08;;;;;;;;;3.00;2.00;;;;;8.98;63.06;101351.34;5036126;28;45420;-84
2022/02/15 04:53:33;;;;;;;;;2.25;2.25;;;;;8.99;62.95;101350.44;5041796;28;45272;-86
2022/02/15 04:56:02;;;;;;;;;2.00;1.50;;;;;9.00;62.64;101349.56;5042486;28;45230;-86
2022/02/15 04:58:27;;;;;;;;;3.00;1.25;;;;;9.03;63.52;101359.13;5041744;28;45240;-87
2022/02/15 05:00:53;;;;;;;;;3.50;2.50;;;;;8.99;63.12;101360.03;5023590;28;47183;-83
2022/02/15 05:03:18;;;;;;;;;0.50;0.50;;;;;8.99;62.72;101362.66;5042211;28;46113;-83
2022/02/15 05:05:43;;;;;;;;;2.25;2.25;;;;;8.98;63.11;101376.69;5042024;28;45296;-83
2022/02/15 05:08:09;;;;;;;;;3.75;3.00;;;;;8.99;63.12;101375.78;5041102;28;45217;-83
2022/02/15 05:10:34;;;;;;;;;3.50;1.75;;;;;8.95;63.07;101377.59;5044728;28;45492;-82
2022/02/15 05:13:01;;;;;;;;;4.00;2.00;;;;;8.93;62.85;101374.16;5047236;28;45386;-83
2022/02/15 05:15:27;;;;;;;;;4.00;1.50;;;;;8.90;62.75;101389.91;5023575;28;45344;-87
2022/02/15 05:17:52;;;;;;;;;2.50;2.00;;;;;8.86;63.25;101383.00;5040617;28;45372;-86
2022/02/15 05:20:18;;;;;;;;;6.00;2.00;;;;;8.88;63.28;101389.06;5041507;28;45390;-83
2022/02/15 05:22:45;;;;;;;;;1.00;1.00;;;;;8.86;63.30;101390.84;5041699;28;46376;-83
2022/02/15 05:25:12;;;;;;;;;4.75;2.00;;;;;8.87;63.19;101403.94;5041508;28;45224;-82
2022/02/15 05:27:38;;;;;;;;;1.75;1.75;;;;;8.85;63.30;101396.97;5041536;28;45299;-82
2022/02/15 05:30:04;;;;;;;;;1.25;1.25;;;;;8.83;63.22;101397.00;5041915;28;45568;-82
2022/02/15 05:32:30;;;;;;;;;2.75;2.75;;;;;8.86;63.63;101398.72;5041854;28;45551;-82
2022/02/15 05:34:55;;;;;;;;;7.00;3.00;;;;;8.83;63.55;101397.00;5023508;28;45367;-82
2022/02/15 05:37:20;;;;;;;;;1.00;1.00;;;;;8.84;63.43;101403.13;5040858;28;45509;-86
2022/02/15 05:39:46;;;;;;;;;5.25;2.25;;;;;8.81;63.45;101384.81;5038410;28;45484;-82
2022/02/15 05:42:11;;;;;;;;;4.25;1.25;;;;;8.81;63.26;101404.03;5040582;28;45336;-86
2022/02/15 05:44:36;;;;;;;;;2.00;1.00;;;;;8.76;62.87;101395.38;5040755;28;45458;-86
2022/02/15 05:47:02;;;;;;;;;4.50;2.00;;;;;8.73;63.23;101393.66;5032192;28;45436;-86
2022/02/15 05:49:28;;;;;;;;;2.00;2.00;;;;;8.73;63.24;101398.03;5041029;28;45328;-84
2022/02/15 05:51:53;;;;;;;;;3.00;1.00;;;;;8.72;63.27;101401.53;5023298;28;45355;-84
2022/02/15 05:54:19;;;;;;;;;3.25;3.25;;;;;8.69;63.80;101391.97;5041207;28;45253;-83
2022/02/15 05:56:44;;;;;;;;;2.00;2.00;;;;;8.69;63.03;101396.34;5040828;28;45253;-84
2022/02/15 05:59:09;;;;;;;;;4.75;3.00;;;;;8.68;63.31;101392.84;5041416;28;45217;-88
2022/02/15 06:01:35;;;;;;;;;1.00;1.00;;;;;8.68;63.50;101394.59;5021551;28;46957;-84
2022/02/15 06:04:12;;;;;;;;;3.25;2.25;;;;;8.68;63.64;101403.34;5040975;28;45244;-83
2022/02/15 06:06:40;;;;;;;;;2.25;2.00;;;;;8.66;63.70;101408.63;5040495;28;45303;-83
2022/02/15 06:09:05;;;;;;;;;2.25;1.50;;;;;8.66;63.62;101419.09;5022932;28;46151;-85
2022/02/15 06:11:31;;;;;;;;;4.75;3.25;;;;;8.63;63.61;101415.63;5033953;28;47705;-85
2022/02/15 06:13:57;;;;;;;;;3.75;2.00;;;;;8.64;63.83;101425.25;5042614;28;45469;-83
2022/02/15 06:16:23;;;;;;;;;3.25;2.75;;;;;8.63;63.39;101431.38;5035618;28;45398;-83
2022/02/15 06:18:55;;;;;;;;;3.75;0.75;;;;;8.61;63.15;101434.00;5035662;28;45229;-84
2022/02/15 06:21:20;;;;;;;;;2.25;1.00;;;;;8.59;63.08;101430.56;5040918;28;46138;-86
2022/02/15 06:23:46;;;;;;;;;4.00;1.00;;;;;8.54;63.76;101433.19;5040768;28;45367;-86
2022/02/15 06:26:11;;;;;;;;;2.00;1.00;;;;;8.50;63.53;101434.13;5036680;28;45647;-86
2022/02/15 06:28:37;;;;;;;;;0.75;0.50;;;;;8.47;63.27;101436.75;5035517;28;45288;-86
2022/02/15 06:31:02;;;;;;;;;1.00;1.00;;;;;8.47;63.09;101443.78;5039175;28;46368;-87
2022/02/15 06:33:27;;;;;;;;;2.00;2.00;;;;;8.43;63.18;101437.69;5036727;28;45412;-87
2022/02/15 06:35:53;;;;;;;;;4.25;1.25;;;;;8.40;63.07;101437.72;5039390;28;45548;-84
2022/02/15 06:38:18;;;;;;;;;1.75;1.00;;;;;8.37;63.35;101448.28;5037247;28;45181;-85
2022/02/15 06:40:43;;;;;;;;;3.75;2.00;;;;;8.33;63.56;101450.03;5035760;28;45454;-86
2022/02/15 06:43:10;;;;;;;;;0.50;0.50;;;;;8.29;63.38;101450.97;5020602;28;45248;-86
2022/02/15 06:45:36;;;;;;;;;3.00;2.25;;;;;8.31;63.47;101455.31;5040626;28;45457;-84
2022/02/15 06:48:01;;;;;;;;;1.50;1.00;;;;;8.31;63.17;101455.31;5031997;28;45378;-84
2022/02/15 06:50:26;;;;;;;;;1.00;1.00;;;;;8.28;62.84;101454.47;5037277;28;46554;-88
2022/02/15 06:52:52;;;;;;;;;3.25;1.00;;;;;8.20;63.26;101463.28;5040388;28;45374;-88
2022/02/15 06:55:18;;;;;;;;;1.00;1.00;;;;;8.22;63.54;101473.75;5036238;28;45379;-88
2022/02/15 06:57:43;;;;;;;;;3.75;1.25;;;;;8.19;63.56;101476.41;5034605;28;45931;-88
2022/02/15 07:00:09;;;;;;;;;2.00;2.00;;;;;8.17;63.48;101484.25;5040400;28;45866;-88
2022/02/15 07:02:36;;;;;;;;;4.00;2.75;;;;;8.15;63.67;101485.19;5039438;28;45324;-88
2022/02/15 07:05:02;;;;;;;;;3.75;3.75;;;;;8.13;63.57;101487.81;5040028;28;45407;-88
2022/02/15 07:07:27;;;;;;;;;3.75;1.00;;;;;8.10;63.36;101486.06;5038712;28;46005;-89
2022/02/15 07:09:53;;;;;;;;;4.75;2.50;;;;;8.07;63.01;101488.75;5036562;28;46418;-88
2022/02/15 07:12:18;;;;;;;;;1.25;1.25;;;;;8.05;63.11;101487.03;5039205;28;45477;-88
2022/02/15 07:14:44;;;;;;;;;6.75;3.00;;;;;8.06;63.64;101486.13;5039033;28;45285;-89
2022/02/15 07:17:09;;;;;;;;;1.00;1.00;;;;;8.02;63.25;101490.53;5039845;28;45512;-88
2022/02/15 07:19:35;;;;;;;;;2.25;1.50;;;;;8.03;63.52;101496.63;5040225;28;45216;-89
2022/02/15 07:22:00;;;;;;;;;2.50;1.25;;;;;8.01;63.88;101494.03;5030702;28;45271;-88
2022/02/15 07:24:26;;;;;;;;;6.00;3.50;;;;;8.00;63.54;101492.28;5019734;28;45656;-89
2022/02/15 07:26:51;;;;;;;;;4.75;1.75;;;;;8.03;63.48;101507.09;5033108;28;45829;-92
2022/02/15 07:29:17;;;;;;;;;3.75;2.00;;;;;8.02;63.62;101508.88;5040272;28;45252;-91
2022/02/15 07:31:42;;;;;;;;;3.00;3.00;;;;;8.05;63.50;101505.34;5022259;28;45218;-92
2022/02/15 07:34:08;;;;;;;;;1.25;1.25;;;;;8.03;63.38;101500.13;5022010;28;45568;-91
2022/02/15 07:36:34;;;;;;;;;1.50;1.50;;;;;8.03;63.50;101507.09;5039855;28;45797;-92
2022/02/15 07:38:59;;;;;;;;;3.00;1.00;;;;;7.98;63.44;101507.16;5039895;28;45432;-91
2022/02/15 07:41:27;;;;;;;;;2.00;2.00;;;;;7.92;63.74;101509.84;5028110;28;45429;-91
2022/02/15 07:43:52;;;;;;;;;3.25;2.00;;;;;7.95;63.76;101510.66;5036284;28;45437;-91
2022/02/15 07:46:18;;;;;;;;;0.50;0.50;;;;;7.95;63.27;101515.91;5017664;28;47546;-92
2022/02/15 07:48:43;;;;;;;;;3.75;1.00;;;;;7.93;64.01;101520.28;5020342;28;47322;-89
2022/02/15 07:51:09;;;;;;;;;6.00;4.00;;;;;7.91;64.05;101518.56;5004141;28;45423;-91
2022/02/15 07:53:34;;;;;;;;;4.50;3.00;;;;;7.92;63.91;101517.69;5006304;28;45299;-91
2022/02/15 07:55:59;;;;;;;;;3.75;3.75;;;;;7.94;63.80;101508.06;5029418;28;45325;-90
2022/02/15 07:58:25;;;;;;;;;4.00;3.00;;;;;8.00;63.75;101515.84;5024976;28;45326;-90
2022/02/15 08:00:51;;;;;;;;;2.50;1.75;;;;;8.03;63.80;101517.56;5034446;28;45434;-91
2022/02/15 08:03:17;;;;;;;;;4.00;2.75;;;;;8.02;64.00;101515.84;5031267;28;45374;-90
2022/02/15 08:05:43;;;;;;;;;3.00;2.50;;;;;8.00;64.11;101523.69;5019548;28;45481;-92
2022/02/15 08:08:09;;;;;;;;;5.25;2.00;;;;;7.98;63.92;101533.31;5035112;28;46988;-92
2022/02/15 08:10:34;;;;;;;;;5.00;3.00;;;;;7.99;63.74;101532.47;5038957;28;45740;-92
2022/02/15 08:13:01;;;;;;;;;4.00;2.00;;;;;7.99;63.83;101545.56;5025538;28;45629;-90
2022/02/15 08:15:32;;;;;;;;;5.75;2.00;;;;;7.98;64.17;101549.03;5045261;28;47194;-92
2022/02/15 08:18:00;;;;;;;;;4.50;3.00;;;;;8.02;63.78;101553.38;5016423;28;47212;-92
2022/02/15 08:20:25;;;;;;;;;4.00;2.00;;;;;8.05;63.76;101552.50;5020197;28;45526;-90
2022/02/15 08:22:51;;;;;;;;;3.50;3.50;;;;;8.07;63.96;101567.31;5024702;28;45799;-92
2022/02/15 08:25:18;;;;;;;;;3.50;2.00;;;;;8.16;63.78;101555.00;5021862;28;46914;-93
2022/02/15 08:27:44;;;;;;;;;5.50;4.00;;;;;8.17;63.67;101551.50;5033300;28;47115;-92
2022/02/15 08:30:10;;;;;;;;;3.50;2.00;;;;;8.19;63.64;101565.44;5038137;28;45241;-92
2022/02/15 08:32:36;;;;;;;;;4.50;2.50;;;;;8.20;63.30;101556.69;5038650;28;45809;-92
2022/02/15 08:35:01;;;;;;;;;5.25;2.00;;;;;8.23;63.60;101561.91;5019880;28;46233;-92
2022/02/15 08:37:26;;;;;;;;;3.50;2.75;;;;;8.26;63.54;101567.13;5038417;28;45646;-92
2022/02/15 08:39:52;;;;;;;;;6.75;3.00;;;;;8.29;63.31;101560.97;5018271;28;45763;-92
2022/02/15 08:42:17;;;;;;;;;3.00;3.00;;;;;8.30;63.61;101568.81;5020017;28;45378;-92
2022/02/15 08:44:44;;;;;;;;;2.00;2.00;;;;;8.31;63.28;101567.94;5020456;28;46254;-92
2022/02/15 08:47:09;;;;;;;;;5.75;3.00;;;;;8.37;63.27;101580.09;5020263;28;47505;-92
2022/02/15 08:49:36;;;;;;;;;2.00;2.00;;;;;8.38;62.81;101567.88;5038351;28;45368;-91
2022/02/15 08:52:02;;;;;;;;;5.00;2.75;;;;;8.40;63.38;101574.84;5020512;28;45371;-92
2022/02/15 08:54:28;;;;;;;;;3.50;2.50;;;;;8.39;62.79;101582.72;5036123;28;47169;-91
2022/02/15 08:56:53;;;;;;;;;3.00;0.00;;;;;8.39;63.28;101583.59;5019454;28;46957;-91
2022/02/15 08:59:20;;;;;;;;;3.75;2.25;;;;;8.44;63.73;101583.53;5038310;28;45284;-92
2022/02/15 09:01:46;;;;;;;;;3.50;2.00;;;;;8.47;63.50;101580.88;5028230;28;45315;-91
2022/02/15 09:04:13;;;;;;;;;3.00;2.00;;;;;8.55;63.01;101584.28;5037376;28;45403;-92
2022/02/15 09:06:40;;;;;;;;;6.00;2.00;;;;;8.57;63.19;101573.78;5036956;28;47268;-92
2022/02/15 09:09:06;;;;;;;;;5.00;4.25;;;;;8.58;62.50;101572.94;5019859;28;45778;-92
2022/02/15 09:11:32;;;;;;;;;2.50;2.50;;;;;8.63;63.07;101570.25;5028304;28;45427;-93
2022/02/15 09:13:57;;;;;;;;;3.00;3.00;;;;;8.66;63.33;101557.13;5024125;28;46509;-92
2022/02/15 09:16:24;;;;;;;;;9.25;3.75;;;;;8.71;62.76;101542.22;5023719;28;47152;-92
2022/02/15 09:18:49;;;;;;;;;4.75;3.25;;;;;8.80;62.91;101540.34;5029223;28;45372;-93
2022/02/15 09:21:15;;;;;;;;;4.75;3.00;;;;;8.84;63.32;101539.44;5025085;28;45357;-94
2022/02/15 09:23:41;;;;;;;;;4.50;2.75;;;;;8.87;62.82;101537.63;5040866;28;46841;-93
2022/02/15 09:26:08;;;;;;;;;4.50;4.50;;;;;8.91;62.87;101546.34;5023964;28;47472;-93
2022/02/15 09:28:34;;;;;;;;;7.00;3.00;;;;;8.95;62.91;101555.91;5035392;28;45358;-95
2022/02/15 09:30:59;;;;;;;;;3.00;2.25;;;;;8.97;62.59;101559.38;5039075;28;45329;-95
2022/02/15 09:33:25;;;;;;;;;3.25;3.25;;;;;8.99;62.42;101556.72;5042631;28;45583;-95
2022/02/15 09:35:51;;;;;;;;;3.50;2.50;;;;;9.01;63.07;101560.19;5024464;28;46988;-94
2022/02/15 09:38:17;;;;;;;;;4.75;3.00;;;;;9.05;63.14;101563.63;5023726;28;45756;-94
2022/02/15 09:40:43;;;;;;;;;5.75;2.00;;;;;9.09;63.05;101573.19;5034175;28;45410;-95
2022/02/15 09:43:12;;;;;;;;;2.50;2.00;;;;;9.13;62.89;101569.66;5024891;28;46524;-94
2022/02/15 09:45:38;;;;;;;;;2.00;1.25;;;;;9.16;61.98;101563.50;5026171;28;47213;-95
2022/02/15 09:48:08;;;;;;;;;4.00;1.50;;;;;9.19;61.89;101569.56;5032387;28;45435;-95
2022/02/15 09:50:35;;;;;;;;;2.25;2.25;;;;;9.19;62.60;101566.94;5027504;28;45252;-93
2022/02/15 09:53:01;;;;;;;;;2.25;2.00;;;;;9.25;62.33;101571.25;5042978;28;45389;-95
2022/02/15 09:55:27;;;;;;;;;1.00;1.00;;;;;9.30;62.42;101558.94;5024785;28;47039;-94
2022/02/15 09:57:52;;;;;;;;;7.25;4.00;;;;;9.34;62.75;101564.97;5041464;28;45552;-93
2022/02/15 10:00:21;;;;;;;;;7.00;5.00;;;;;9.38;61.99;101566.69;5025444;28;45316;-93
2022/02/15 10:02:50;;;;;;;;;2.75;2.75;;;;;9.44;62.30;101563.09;5041449;28;45319;-94
2022/02/15 10:05:17;;;;;;;;;5.00;3.75;;;;;9.52;62.08;101574.34;5040856;28;47184;-94
2022/02/15 10:07:47;;;;;;;;;6.00;3.75;;;;;9.57;62.21;101569.03;5022562;28;45652;-92
2022/02/15 10:10:13;;;;;;;;;4.50;3.50;;;;;9.60;61.90;101563.75;5037541;28;45455;-91
2022/02/15 10:12:39;;;;;;;;;5.50;4.00;;;;;9.65;62.09;101577.66;5032982;28;45593;-93
2022/02/15 10:15:09;;;;;;;;;7.50;4.25;;;;;9.71;62.31;101571.44;5036428;28;46240;-90
2022/02/15 10:17:37;;;;;;;;;3.25;2.75;;;;;9.81;61.99;101580.03;5023161;28;45800;-92
2022/02/15 10:20:04;;;;;;;;;4.75;2.00;;;;;9.84;62.26;101566.84;5034963;28;45541;-93
2022/02/15 10:22:29;;;;;;;;;7.50;3.00;;;;;9.91;61.82;101567.63;5039492;28;45346;-93
2022/02/15 10:25:00;;;;;;;;;5.00;4.50;;;;;10.00;62.42;101564.81;5039305;28;46392;-87
2022/02/15 10:27:35;;;;;;;;;3.25;2.50;;;;;10.11;62.09;101569.91;5022890;28;45852;-88
2022/02/15 10:30:03;;;;;;;;;4.00;2.00;;;;;10.22;61.45;101576.75;5031626;28;45478;-92
2022/02/15 10:32:29;;;;;;;;;4.25;3.00;;;;;10.32;61.30;101572.19;5023016;28;46105;-90
2022/02/15 10:34:59;;;;;;;;;6.25;4.00;;;;;10.40;61.39;101582.53;5040409;28;46285;-92
2022/02/15 10:37:27;;;;;;;;;4.75;4.75;;;;;10.50;61.53;101588.47;5022264;28;45945;-91
2022/02/15 10:39:58;;;;;;;;;6.00;6.00;;;;;10.59;61.70;101585.72;5040497;28;45345;-91
2022/02/15 10:42:28;;;;;;;;;6.75;5.25;;;;;10.69;61.80;101583.78;5022715;28;47253;-92
2022/02/15 10:45:04;;;;;;;;;4.50;3.00;;;;;10.81;61.33;101572.16;5040478;28;45600;-91
2022/02/15 10:47:34;;;;;;;;;2.00;2.00;;;;;10.86;60.47;101572.94;5039939;28;45381;-91
2022/02/15 10:50:05;;;;;;;;;7.25;2.25;;;;;10.90;60.47;101563.19;5040361;28;45438;-91
2022/02/15 10:52:31;;;;;;;;;4.00;4.00;;;;;10.92;60.90;101556.13;5040235;28;45671;-91
2022/02/15 10:54:57;;;;;;;;;3.50;2.00;;;;;10.95;60.01;101549.94;5022343;28;46876;-90
2022/02/15 10:57:24;;;;;;;;;2.00;2.00;;;;;10.97;60.38;101535.84;5039940;28;45375;-90
2022/02/15 10:59:52;;;;;;;;;2.75;2.00;;;;;11.01;60.10;101541.94;5040586;28;45382;-91
2022/02/15 11:02:30;;;;;;;;;3.00;3.00;;;;;11.03;59.63;101540.13;5040385;28;45590;-92
2022/02/15 11:05:00;;;;;;;;;3.50;3.00;;;;;10.98;59.39;101534.97;5023717;28;48013;-92
2022/02/15 11:07:27;;;;;;;;;3.50;2.00;;;;;10.99;59.40;101538.44;5047283;28;45403;-92
2022/02/15 11:10:03;;;;;;;;;3.25;1.50;;;;;10.97;59.98;101543.75;5022990;28;45401;-91
2022/02/15 11:12:44;;;;;;;;;2.00;2.00;;;;;10.96;59.90;101528.88;5028768;28;46280;-91
2022/02/15 11:15:11;;;;;;;;;4.00;3.25;;;;;11.01;60.17;101534.03;5021203;28;47468;-90
2022/02/15 11:17:51;;;;;;;;;4.50;3.00;;;;;11.06;59.96;101526.03;5040347;28;45736;-92
2022/02/15 11:20:19;;;;;;;;;3.50;2.75;;;;;11.07;59.96;101511.97;5033938;28;45470;-88
2022/02/15 11:22:52;;;;;;;;;2.25;2.25;;;;;11.13;59.86;101512.72;5020605;28;47019;-89
2022/02/15 11:25:28;;;;;;;;;4.75;2.75;;;;;11.17;59.42;101513.50;5021776;28;47390;-89
2022/02/15 11:27:54;;;;;;;;;3.50;2.50;;;;;11.20;59.47;101513.44;5038780;28;45451;-88
2022/02/15 11:30:20;;;;;;;;;2.50;2.00;;;;;11.25;59.38;101521.22;5020476;28;45424;-87